Station: CLARE AWS

  Atmospheric Gas Attenuation - ITU Rec 676-11   --------------- db/100km ---------------
Date Time Temp RH % AH g/m3 Dew Point Wind Direction Speed kph Gust kph Barometer mB Rainfall Since 9am 24GHz 47GHz 76GHz 122GHz 134GHz 241GHz
16 18:10 20.3 42 7.39 7 22 28 1016.2 0 16.7 22.4 32.5 84.9 76.5 262.4
16 18:00 20.6 41 7.34 6.9 20 32 1016.1 0 16.6 22.3 32.2 84.1 75.6 259.4
16 17:50 21.2 40 7.41 7.1 13 17 1016.1 0 16.7 22.2 32.2 84.2 75.8 260.3
16 17:40 21 39 7.14 6.5 22 30 1016.1 0 16.2 21.9 31.3 81.9 72.9 250.1
16 17:30 21.1 38 7 6.2 20 33 1016 0 15.9 21.7 30.8 80.5 71.3 244.2
16 17:20 21.6 38 7.21 6.7 19 24 1016.4 0 16.3 21.9 31.3 81.9 73.2 251.1
16 17:10 21 37 6.78 5.8 28 33 1016.4 0 15.4 21.4 30.1 78.6 68.9 235.9
16 17:00 21.1 37 6.82 5.9 20 35 1016.2 0 15.5 21.4 30.2 78.9 69.2 237.1
16 16:50 20.8 36 6.52 5.2 22 32 1016.4 0 14.9 21.1 29.3 76.4 66.1 226.2
16 16:40 22.6 34 6.83 6 13 17 1016.5 0 15.5 21.1 29.7 77.5 68.1 233.3
16 16:30 21.7 33 6.29 4.7 17 28 1016.4 0 14.4 20.6 28.2 73.6 62.9 214.9
16 16:20 22.2 32 6.28 4.7 17 22 1016.6 0 14.3 20.5 28.0 73.0 62.4 213.3
16 16:10 23.3 30 6.27 4.8 13 17 1016.6 0 14.3 20.2 27.6 72.0 61.5 210.1
16 16:00 23.1 30 6.2 4.6 15 30 1016.5 0 14.1 20.2 27.5 71.6 60.9 207.9
16 15:50 22.6 31 6.23 4.6 13 19 1016.8 0 14.2 20.3 27.7 72.3 61.6 210.4
16 15:40 22.2 29 5.69 3.3 9 13 1016.9 0 13.1 19.7 26.1 67.9 56.1 191.1
16 15:30 22.6 28 5.62 3.2 19 32 1016.9 0 13.0 19.5 25.8 67.0 55.1 187.5
16 15:20 22.6 29 5.83 3.7 19 22 1017.1 0 13.4 19.8 26.4 68.8 57.3 195.4
16 15:10 21.8 30 5.76 3.5 11 13 1017.3 0 13.3 19.9 26.5 68.9 57.1 194.7
16 15:00 22.7 29 5.86 3.8 13 26 1017.3 0 13.5 19.8 26.5 69.0 57.6 196.3
16 14:50 22 30 5.82 3.6 13 19 1017.4 0 13.4 19.9 26.6 69.3 57.6 196.5
16 14:40 22 30 5.82 3.6 22 32 1017.5 0 13.4 19.9 26.6 69.3 57.6 196.5
16 14:30 21 29 5.31 2.3 13 22 1017.5 0 12.4 19.5 25.3 65.7 52.9 179.6
16 14:20 21.4 30 5.62 3.1 9 13 1017.7 0 13.0 19.8 26.2 68.1 55.9 190.4
16 14:10 21.8 29 5.56 3 15 19 1017.8 0 12.9 19.6 25.9 67.2 55.0 187.3
16 14:00 20.5 30 5.34 2.3 13 22 1017.8 0 12.4 19.6 25.5 66.4 53.5 181.9
16 13:50 21.1 29 5.34 2.4 9 11 1017.9 0 12.4 19.5 25.4 65.9 53.2 180.6
16 13:40 20.6 30 5.37 2.4 9 17 1018 0 12.5 19.7 25.6 66.6 53.8 182.8
16 13:30 21.1 30 5.53 2.9 11 24 1017.9 0 12.8 19.8 26.0 67.5 55.2 187.7
16 13:20 21 31 5.68 3.2 15 20 1018.2 0 13.1 20.0 26.5 68.9 56.9 193.7
16 13:10 19.7 31 5.26 2.1 6 9 1018.2 0 12.3 19.7 25.5 66.3 53.2 180.7
16 13:00 19.5 32 5.37 2.4 11 20 1018.1 0 12.5 19.9 26.0 67.5 54.5 185.3
16 12:50 19.2 33 5.44 2.6 9 17 1018.2 0 12.7 20.0 26.3 68.3 55.5 188.7
16 12:40 18.7 32 5.12 1.7 15 19 1018.3 0 12.0 19.7 25.4 65.9 52.4 177.5
16 12:30 18.7 33 5.28 2.1 11 19 1018.2 0 12.4 19.9 25.9 67.3 54.1 183.6
16 12:20 18.8 32 5.15 1.8 9 11 1018.3 0 12.1 19.7 25.5 66.1 52.6 178.4
16 12:10 19.1 35 5.74 3.3 9 13 1018.2 0 13.3 20.5 27.3 71.1 58.9 200.5
16 12:00 18.5 36 5.7 3.2 13 22 1018.2 0 13.3 20.6 27.4 71.2 58.9 200.4
16 11:50 18.4 37 5.82 3.5 11 15 1018.4 0 13.5 20.7 27.8 72.4 60.3 205.4
16 11:40 17.3 38 5.6 2.9 11 13 1018.5 0 13.1 20.7 27.4 71.4 58.6 199.4
16 11:30 17.4 39 5.78 3.3 13 24 1018.5 0 13.5 20.9 28.0 73.0 60.6 206.3
16 11:20 17.5 39 5.81 3.4 19 24 1018.7 0 13.5 20.9 28.1 73.2 60.9 207.3
16 11:10 17 40 5.79 3.3 15 17 1018.8 0 13.5 21.0 28.2 73.4 61.0 207.8
16 11:00 17.3 42 6.19 4.3 13 22 1018.6 0 14.3 21.5 29.5 76.9 65.4 223.1
16 10:50 16.9 41 5.9 3.6 13 17 1018.8 0 13.7 21.2 28.6 74.5 62.4 212.5
16 10:40 16.6 43 6.07 4 11 13 1018.9 0 14.1 21.5 29.3 76.4 64.6 220.2
16 10:30 16.3 43 5.97 3.7 11 19 1018.8 0 13.9 21.4 29.1 75.8 63.6 216.9
16 10:20 15.5 46 6.08 3.9 15 19 1019 0 14.2 21.8 29.8 77.6 65.6 223.6
16 10:10 15.4 46 6.04 3.9 9 11 1019 0 14.1 21.8 29.7 77.3 65.2 222.2
16 10:00 15.2 45 5.84 3.4 11 22 1018.9 0 13.7 21.5 29.0 75.6 63.0 214.5
16 09:50 15.1 47 6.06 3.9 7 9 1019.3 0 14.1 21.9 29.8 77.8 65.7 223.9
16 09:40 14.2 47 5.74 3.1 13 17 1019.3 0 13.5 21.6 29.0 75.6 62.6 213.1
16 09:30 15.1 48 6.19 4.2 11 24 1019.3 0 14.4 22.1 30.3 79.0 67.2 229.3
16 09:20 13.7 49 5.8 3.2 9 13 1019.3 0 13.6 21.8 29.4 76.6 63.7 216.9
16 09:10 13.6 49 5.77 3.1 17 20 1019.3 0 13.6 21.8 29.3 76.4 63.5 215.9
16 09:00 14 49 5.91 3.5 13 24 1019.1 0 13.9 21.9 29.7 77.4 64.8 220.6
16 08:50 13.6 51 6 3.7 13 17 1019.2 0.6 14.1 22.1 30.2 78.7 66.2 225.6
16 08:40 13.9 51 6.11 3.9 13 17 1019 0.6 14.3 22.2 30.5 79.4 67.3 229.3
16 08:30 13.5 52 6.08 3.8 13 24 1018.7 0.6 14.2 22.3 30.5 79.5 67.2 229.1
16 08:20 13.5 52 6.08 3.8 17 22 1018.7 0.6 14.2 22.3 30.5 79.5 67.2 229.1
16 08:10 13.3 52 6.01 3.7 15 17 1018.7 0.6 14.1 22.2 30.3 79.0 66.6 226.7
16 08:00 12.9 54 6.09 3.8 15 22 1018.4 0.6 14.3 22.4 30.7 80.2 67.8 231.2
16 07:50 12.7 53 5.9 3.4 15 20 1018.4 0.6 13.9 22.2 30.1 78.5 65.7 223.7
16 07:40 12.6 54 5.97 3.5 11 15 1018.4 0.6 14.0 22.3 30.4 79.3 66.6 226.9
16 07:30 12.2 55 5.94 3.4 11 20 1018.1 0.6 14.0 22.4 30.4 79.3 66.6 226.7
16 07:20 11.9 57 6.04 3.7 11 17 1018.2 0.6 14.2 22.6 30.9 80.6 68.1 231.9
16 07:10 11.5 59 6.1 3.8 9 11 1018 0.6 14.4 22.8 31.3 81.6 69.2 235.6
16 07:00 11.2 60 6.08 3.7 7 11 1017.9 0.6 14.3 22.8 31.3 81.7 69.2 235.6
16 06:50 11.1 60 6.04 3.6 9 11 1018 0.6 14.2 22.8 31.2 81.4 68.8 234.2
16 06:40 11.1 60 6.04 3.6 6 6 1018.1 0.6 14.2 22.8 31.2 81.4 68.8 234.2
16 06:30 11 60 6.01 3.5 6 11 1018 0.6 14.2 22.8 31.1 81.2 68.5 233.2
16 06:20 10.9 61 6.07 3.7 7 9 1018 0.6 14.3 22.9 31.4 81.9 69.3 236.1
16 06:10 10.9 60 5.97 3.5 7 7 1017.8 0.6 14.1 22.7 31.0 80.9 68.0 231.7
16 06:00 10.9 60 5.97 3.5 7 17 1017.5 0.6 14.1 22.7 31.0 80.9 68.0 231.6
16 05:50 10.9 60 5.97 3.5 7 9 1017.6 0.6 14.1 22.7 31.0 80.9 68.0 231.6
16 05:40 11 59 5.91 3.3 9 13 1017.5 0.6 14.0 22.6 30.8 80.2 67.2 228.7
16 05:30 11 59 5.91 3.3 13 20 1017.5 0.6 14.0 22.6 30.8 80.2 67.2 228.7
16 05:20 10.9 60 5.97 3.5 9 11 1017.7 0.6 14.1 22.7 31.0 80.9 68.0 231.6
16 05:10 10.9 59 5.87 3.2 11 17 1017.7 0.6 13.9 22.6 30.6 79.9 66.8 227.3
16 04:50 10.2 63 6 3.5 7 7 1017.5 0.6 14.2 22.9 31.4 81.9 69.0 235.0
16 04:40 10.1 63 5.96 3.4 7 7 1017.6 0.6 14.1 22.9 31.3 81.6 68.6 233.5
16 04:30 10 64 6.02 3.5 9 13 1017.3 0.6 14.2 23.0 31.5 82.3 69.4 236.4
16 04:20 9.8 65 6.03 3.5 7 9 1017.2 0.6 14.3 23.1 31.7 82.6 69.7 237.4
16 04:10 9.8 65 6.03 3.5 6 7 1017.1 0.6 14.3 23.1 31.7 82.6 69.7 237.4
16 04:00 9.9 65 6.07 3.6 7 15 1016.9 0.6 14.3 23.1 31.8 82.9 70.1 238.8
16 03:50 10.1 64 6.05 3.6 7 9 1017.2 0.6 14.3 23.0 31.6 82.5 69.7 237.4
16 03:40 10.2 64 6.09 3.7 6 7 1017.3 0.6 14.4 23.1 31.7 82.8 70.1 238.9
16 03:30 10.4 63 6.07 3.7 9 15 1017.2 0.6 14.3 23.0 31.6 82.4 69.7 237.4
16 03:20 10.3 63 6.03 3.6 9 9 1017.5 0.6 14.2 22.9 31.5 82.1 69.3 236.0
16 03:10 10.3 64 6.13 3.8 7 9 1017.5 0.6 14.5 23.1 31.9 83.1 70.6 240.4
16 03:00 10.3 63 6.03 3.6 7 11 1017.3 0.6 14.2 22.9 31.5 82.1 69.3 236.0
16 02:50 10.3 63 6.03 3.6 7 9 1017.3 0.6 14.2 22.9 31.5 82.1 69.3 236.0
16 02:40 10.3 63 6.03 3.6 7 9 1017.3 0.6 14.2 22.9 31.5 82.1 69.3 236.0
16 02:30 10.2 63 6 3.5 7 13 1017.2 0.6 14.2 22.9 31.4 81.9 69.0 234.9
16 02:20 10 63 5.92 3.3 7 15 1017.4 0.6 14.0 22.8 31.2 81.3 68.2 232.0
16 02:10 9.6 64 5.86 3.1 6 7 1017.5 0.6 13.9 22.9 31.1 81.1 67.8 230.5
16 02:00 9.3 65 5.84 3.1 6 9 1017.5 0.6 13.9 22.9 31.1 81.2 67.8 230.5
16 01:50 9.2 65 5.81 3 6 7 1017.9 0.6 13.8 22.9 31.1 81.0 67.5 229.5
16 01:40 9.2 64 5.72 2.8 7 9 1017.9 0.6 13.6 22.8 30.7 80.1 66.4 225.6
16 01:20 9.3 63 5.66 2.6 4 6 1017.7 0.6 13.5 22.6 30.5 79.4 65.5 222.6

Last Refresh: 16-Jan-2021 18:22:26

Most of the information presented on this site is sourced from the Bureau of Meteorology.  Copyright in all material sourced from the Bureau of Meteorology resides with the Commonwealth of Australia.